Time;durP1;ratioP1;P1;durP2;ratioP2;P2;SDS_P1;SDS_P2;PMS_P1;PMS_P2;Temp;Humidity;BMP_temperature;BMP_pressure;BME280_temperature;BME280_humidity;BME280_pressure;Samples;Min_cycle;Max_cycle;Signal;HPM_P1;HPM_P2
2023/02/16 00:01:34;;;;;;;4.10;2.03;;;;;;;;;;5068611;28;20061;-63
2023/02/16 00:04:17;;;;;;;3.80;2.22;;;;;;;;;;5068432;28;20048;-64
2023/02/16 00:06:47;;;;;;;4.30;2.10;;;;;;;;;;5068379;28;20044;-64
2023/02/16 00:09:18;;;;;;;5.50;2.08;;;;;;;;;;5035609;28;20059;-63
2023/02/16 00:14:39;;;;;;;7.38;2.13;;;;;;;;;;5051508;28;20053;-64
2023/02/16 00:17:11;;;;;;;4.30;2.35;;;;;;;;;;5070924;28;20484;-63
2023/02/16 00:19:41;;;;;;;4.90;2.00;;;;;;;;;;5068789;28;20049;-63
2023/02/16 00:22:11;;;;;;;4.28;1.90;;;;;;;;;;5034726;28;20056;-63
2023/02/16 00:24:41;;;;;;;4.28;2.17;;;;;;;;;;5070650;28;20048;-64
2023/02/16 00:27:17;;;;;;;7.07;2.13;;;;;;;;;;5051447;28;20060;-64
2023/02/16 00:29:47;;;;;;;5.40;2.20;;;;;;;;;;5087999;28;20056;-64
2023/02/16 00:32:17;;;;;;;2.78;1.88;;;;;;;;;;5096369;28;20051;-65
2023/02/16 00:34:48;;;;;;;6.00;2.35;;;;;;;;;;5038000;28;20055;-64
2023/02/16 00:37:19;;;;;;;6.32;2.53;;;;;;;;;;5038369;28;20420;-67
2023/02/16 00:39:49;;;;;;;5.03;2.70;;;;;;;;;;5054594;28;20541;-66
2023/02/16 00:42:24;;;;;;;6.45;2.30;;;;;;;;;;5034320;28;20053;-64
2023/02/16 00:44:57;;;;;;;7.60;2.35;;;;;;;;;;5047466;28;20053;-63
2023/02/16 00:47:30;;;;;;;5.35;2.35;;;;;;;;;;5017843;28;20441;-62
2023/02/16 00:50:01;;;;;;;5.85;2.50;;;;;;;;;;4988319;28;20054;-66
2023/02/16 00:52:42;;;;;;;9.63;2.33;;;;;;;;;;4930368;29;20059;-62
2023/02/16 00:55:18;;;;;;;5.00;2.30;;;;;;;;;;4911020;29;20044;-63
2023/02/16 00:57:53;;;;;;;5.18;2.28;;;;;;;;;;4893028;29;20063;-65
2023/02/16 01:00:41;;;;;;;6.72;2.47;;;;;;;;;;4910698;29;20055;-62
2023/02/16 01:03:19;;;;;;;9.20;2.25;;;;;;;;;;4871759;29;20076;-62
2023/02/16 01:11:06;;;;;;;5.25;2.15;;;;;;;;;;4838659;29;20053;-62
2023/02/16 01:11:28;;;;;;;5.25;2.25;;;;;;;;;;4854748;29;20062;-63
2023/02/16 01:13:58;;;;;;;4.95;2.35;;;;;;;;;;4874020;29;20102;-62
2023/02/16 01:16:41;;;;;;;6.72;2.42;;;;;;;;;;4827753;29;20060;-62
2023/02/16 01:19:13;;;;;;;6.78;2.40;;;;;;;;;;4857671;29;20093;-62
2023/02/16 01:21:43;;;;;;;5.97;2.05;;;;;;;;;;4857784;29;20070;-66
2023/02/16 01:24:14;;;;;;;4.80;2.35;;;;;;;;;;4863517;29;20068;-63
2023/02/16 01:26:50;;;;;;;5.57;2.58;;;;;;;;;;4873473;29;20055;-62
2023/02/16 01:29:21;;;;;;;8.13;2.60;;;;;;;;;;4937003;28;20055;-62
2023/02/16 01:31:52;;;;;;;4.75;2.30;;;;;;;;;;4952537;28;20472;-63
2023/02/16 01:34:24;;;;;;;7.35;2.90;;;;;;;;;;4937242;28;20474;-62
2023/02/16 01:36:58;;;;;;;7.75;2.50;;;;;;;;;;4944292;28;20552;-63
2023/02/16 01:39:28;;;;;;;5.50;2.63;;;;;;;;;;4958426;28;20491;-62
2023/02/16 01:41:59;;;;;;;10.70;2.67;;;;;;;;;;4991598;28;20054;-64
2023/02/16 01:44:38;;;;;;;9.27;2.75;;;;;;;;;;5009226;28;20808;-61
2023/02/16 01:47:25;;;;;;;5.47;2.40;;;;;;;;;;4995264;28;20054;-62
2023/02/16 01:49:55;;;;;;;8.63;2.45;;;;;;;;;;5030194;28;20520;-62
2023/02/16 01:52:37;;;;;;;4.68;2.40;;;;;;;;;;5031762;28;20045;-63
2023/02/16 01:55:21;;;;;;;5.55;2.72;;;;;;;;;;5035600;28;20052;-64
2023/02/16 01:58:19;;;;;;;5.88;2.70;;;;;;;;;;5050196;28;20418;-64
2023/02/16 02:00:49;;;;;;;9.75;2.97;;;;;;;;;;5050585;28;20053;-62
2023/02/16 02:06:30;;;;;;;7.20;2.63;;;;;;;;;;5010554;28;20050;-63
2023/02/16 02:09:07;;;;;;;6.00;2.97;;;;;;;;;;4991100;28;20519;-63
2023/02/16 02:11:49;;;;;;;8.50;2.80;;;;;;;;;;4951985;29;20051;-62
2023/02/16 02:14:25;;;;;;;8.93;2.70;;;;;;;;;;4952165;29;20054;-64
2023/02/16 02:16:59;;;;;;;10.55;3.20;;;;;;;;;;4913876;29;20055;-63
2023/02/16 02:19:45;;;;;;;8.82;3.17;;;;;;;;;;4894884;29;20437;-63
2023/02/16 02:25:59;;;;;;;4.78;2.45;;;;;;;;;;4893992;29;20134;-63
2023/02/16 02:29:00;;;;;;;7.22;2.80;;;;;;;;;;4887672;29;20061;-63
2023/02/16 02:31:49;;;;;;;4.75;2.63;;;;;;;;;;4802323;29;20055;-62
2023/02/16 02:34:48;;;;;;;7.78;2.45;;;;;;;;;;4809438;29;20079;-62
2023/02/16 02:37:28;;;;;;;5.82;2.80;;;;;;;;;;4838977;29;20056;-64
2023/02/16 02:40:12;;;;;;;6.47;3.03;;;;;;;;;;4856887;29;20061;-65
2023/02/16 02:42:47;;;;;;;8.80;2.85;;;;;;;;;;4848617;29;20046;-65
2023/02/16 02:45:23;;;;;;;7.90;2.78;;;;;;;;;;4853951;29;20414;-65
2023/02/16 02:47:53;;;;;;;4.65;2.58;;;;;;;;;;4882119;29;20056;-63
2023/02/16 03:00:42;;;;;;;5.75;3.05;;;;;;;;;;4752159;30;20518;-63
2023/02/16 03:03:26;;;;;;;5.55;2.70;;;;;;;;;;4757374;30;20074;-63
2023/02/16 03:05:57;;;;;;;;;;;;;;;;;;4748691;30;20541;-63
2023/02/16 03:08:30;;;;;;;7.28;2.33;;;;;;;;;;4747960;30;19926;-65
2023/02/16 03:14:30;;;;;;;6.90;3.28;;;;;;;;;;4742992;30;20071;-63
2023/02/16 03:31:22;;;;;;;5.35;2.97;;;;;;;;;;4930965;29;20496;-63
2023/02/16 03:33:53;;;;;;;7.85;2.88;;;;;;;;;;4962815;28;20048;-65
2023/02/16 03:36:24;;;;;;;12.07;2.92;;;;;;;;;;5028718;28;20057;-63
2023/02/16 03:38:56;;;;;;;6.68;3.25;;;;;;;;;;4995571;28;20060;-62
2023/02/16 03:41:32;;;;;;;7.35;3.17;;;;;;;;;;5012119;28;20076;-63
2023/02/16 03:44:02;;;;;;;6.68;3.22;;;;;;;;;;5069775;28;20067;-62
2023/02/16 03:46:32;;;;;;;8.50;2.85;;;;;;;;;;5038885;28;20067;-63
2023/02/16 03:49:01;;;;;;;5.85;3.17;;;;;;;;;;5068128;28;20057;-62
2023/02/16 03:51:31;;;;;;;7.88;2.88;;;;;;;;;;5068010;28;20072;-63
2023/02/16 03:54:01;;;;;;;5.10;2.60;;;;;;;;;;5068464;28;20056;-63
2023/02/16 03:56:31;;;;;;;12.23;2.70;;;;;;;;;;5035959;28;20059;-62
2023/02/16 03:59:00;;;;;;;8.35;3.45;;;;;;;;;;5067886;28;20068;-62
2023/02/16 04:01:30;;;;;;;7.22;3.03;;;;;;;;;;5018890;28;20052;-62
2023/02/16 04:04:00;;;;;;;9.73;3.03;;;;;;;;;;5068149;28;20059;-63
2023/02/16 04:06:30;;;;;;;6.40;2.60;;;;;;;;;;5068387;28;20056;-62
2023/02/16 04:09:01;;;;;;;10.82;3.25;;;;;;;;;;5052088;28;20048;-63
2023/02/16 04:14:19;;;;;;;6.15;2.80;;;;;;;;;;5051443;28;20456;-64
2023/02/16 04:16:48;;;;;;;7.65;2.67;;;;;;;;;;5033718;28;20048;-62
2023/02/16 04:19:18;;;;;;;9.45;3.42;;;;;;;;;;5034544;28;20053;-62
2023/02/16 04:21:48;;;;;;;7.35;3.42;;;;;;;;;;5068579;28;20055;-62
2023/02/16 04:24:18;;;;;;;8.10;3.45;;;;;;;;;;5068070;28;20053;-63
2023/02/16 04:26:48;;;;;;;5.35;3.03;;;;;;;;;;5030463;28;20516;-64
2023/02/16 04:29:18;;;;;;;10.15;3.80;;;;;;;;;;5090813;28;20052;-62
2023/02/16 04:31:48;;;;;;;7.05;3.15;;;;;;;;;;5090811;28;20047;-64
2023/02/16 04:34:18;;;;;;;11.43;3.05;;;;;;;;;;5090488;28;20051;-63
2023/02/16 04:36:48;;;;;;;5.68;2.97;;;;;;;;;;5071807;28;20056;-62
2023/02/16 04:39:19;;;;;;;6.43;3.88;;;;;;;;;;5090303;28;20391;-64
2023/02/16 04:41:49;;;;;;;6.50;3.03;;;;;;;;;;5039462;28;20052;-62
2023/02/16 04:44:18;;;;;;;9.05;3.10;;;;;;;;;;5022000;28;20055;-67
2023/02/16 04:46:48;;;;;;;14.20;3.08;;;;;;;;;;5055133;28;20138;-63
2023/02/16 04:49:18;;;;;;;6.90;3.00;;;;;;;;;;5070493;28;20057;-62
2023/02/16 04:51:48;;;;;;;8.90;3.55;;;;;;;;;;5071412;28;20056;-62
2023/02/16 04:54:19;;;;;;;8.35;3.22;;;;;;;;;;5054854;28;20056;-62
2023/02/16 04:56:49;;;;;;;12.95;3.88;;;;;;;;;;5054969;28;20558;-62
2023/02/16 04:59:18;;;;;;;12.63;3.38;;;;;;;;;;5071159;28;20067;-66
2023/02/16 05:01:48;;;;;;;6.68;3.63;;;;;;;;;;5038266;28;20491;-63
2023/02/16 05:04:19;;;;;;;11.10;3.70;;;;;;;;;;5071568;28;20080;-65
2023/02/16 05:06:49;;;;;;;9.80;3.17;;;;;;;;;;5037736;28;20066;-62
2023/02/16 05:09:20;;;;;;;9.65;3.33;;;;;;;;;;5054718;28;20059;-65
2023/02/16 05:14:41;;;;;;;7.90;3.42;;;;;;;;;;5071200;28;20068;-65
2023/02/16 05:17:14;;;;;;;11.43;4.05;;;;;;;;;;5071399;28;20420;-64
2023/02/16 05:19:47;;;;;;;7.38;3.72;;;;;;;;;;5075767;28;20063;-62
2023/02/16 05:22:19;;;;;;;7.07;3.35;;;;;;;;;;5059719;28;20052;-62
2023/02/16 05:24:50;;;;;;;7.50;3.55;;;;;;;;;;5093912;28;20396;-63
2023/02/16 05:27:26;;;;;;;6.70;3.53;;;;;;;;;;5074762;28;20056;-63
2023/02/16 05:29:57;;;;;;;9.07;3.22;;;;;;;;;;5050844;28;20501;-63
2023/02/16 05:32:26;;;;;;;10.48;3.50;;;;;;;;;;5050969;28;20053;-64
2023/02/16 05:34:56;;;;;;;8.15;3.67;;;;;;;;;;5017888;28;20143;-65
2023/02/16 05:37:26;;;;;;;7.13;3.10;;;;;;;;;;5017750;28;20175;-63
2023/02/16 05:39:56;;;;;;;9.75;3.25;;;;;;;;;;5001882;28;20557;-63
2023/02/16 05:42:26;;;;;;;9.05;3.25;;;;;;;;;;5050784;28;20053;-65
2023/02/16 05:44:55;;;;;;;13.20;3.72;;;;;;;;;;5017263;28;20052;-68
2023/02/16 05:47:25;;;;;;;7.20;3.13;;;;;;;;;;5017509;28;20460;-62
2023/02/16 05:49:55;;;;;;;9.65;3.45;;;;;;;;;;5050850;28;20072;-64
2023/02/16 05:52:25;;;;;;;6.50;3.45;;;;;;;;;;5050571;28;20045;-62
2023/02/16 05:54:55;;;;;;;8.52;4.15;;;;;;;;;;5050732;28;20068;-62
2023/02/16 05:57:25;;;;;;;11.63;4.22;;;;;;;;;;5050232;28;20053;-63
2023/02/16 05:59:55;;;;;;;9.10;3.97;;;;;;;;;;5030698;28;20057;-63
2023/02/16 06:02:24;;;;;;;9.13;3.78;;;;;;;;;;5050132;28;20056;-62
2023/02/16 06:04:54;;;;;;;9.63;3.80;;;;;;;;;;5000958;28;20053;-63
2023/02/16 06:07:24;;;;;;;9.30;3.30;;;;;;;;;;5050576;28;20057;-63
2023/02/16 06:09:54;;;;;;;8.88;2.92;;;;;;;;;;5034138;28;20064;-64
2023/02/16 06:12:23;;;;;;;8.18;3.38;;;;;;;;;;5001107;28;20639;-65
2023/02/16 06:14:54;;;;;;;9.02;3.38;;;;;;;;;;5050572;28;20059;-63
2023/02/16 06:17:27;;;;;;;7.00;3.67;;;;;;;;;;5049906;28;20572;-63
2023/02/16 06:19:57;;;;;;;8.10;3.33;;;;;;;;;;5050003;28;20052;-63
2023/02/16 06:22:27;;;;;;;11.85;3.88;;;;;;;;;;5049515;28;20056;-64
2023/02/16 06:24:56;;;;;;;9.50;4.03;;;;;;;;;;4990380;28;20527;-64
2023/02/16 06:27:27;;;;;;;9.32;3.47;;;;;;;;;;4990539;28;20057;-63
2023/02/16 06:29:57;;;;;;;16.83;3.83;;;;;;;;;;4999387;28;20057;-63
2023/02/16 06:32:27;;;;;;;6.93;3.33;;;;;;;;;;4977387;28;20058;-63
2023/02/16 06:34:56;;;;;;;12.60;3.03;;;;;;;;;;5010291;28;20498;-63
2023/02/16 06:37:26;;;;;;;11.70;3.15;;;;;;;;;;4993381;28;20049;-64
2023/02/16 06:39:56;;;;;;;7.90;3.05;;;;;;;;;;5010333;28;20053;-63
2023/02/16 06:42:26;;;;;;;10.05;3.25;;;;;;;;;;4993649;28;20093;-63
2023/02/16 06:44:56;;;;;;;6.70;3.08;;;;;;;;;;5009985;28;20061;-63
2023/02/16 06:47:25;;;;;;;8.80;3.10;;;;;;;;;;4977131;28;20054;-63
2023/02/16 06:49:56;;;;;;;7.93;3.53;;;;;;;;;;5010171;28;20486;-65
2023/02/16 06:52:26;;;;;;;11.52;3.78;;;;;;;;;;4976772;28;20065;-62
2023/02/16 06:54:56;;;;;;;12.48;4.40;;;;;;;;;;4977012;28;20084;-63
2023/02/16 06:57:26;;;;;;;7.97;3.72;;;;;;;;;;4993195;28;20057;-61
2023/02/16 06:59:56;;;;;;;10.00;4.30;;;;;;;;;;4970340;28;20062;-63
2023/02/16 07:02:27;;;;;;;10.93;4.20;;;;;;;;;;4981374;28;20057;-67
2023/02/16 07:04:57;;;;;;;10.90;4.68;;;;;;;;;;5012938;28;20522;-64
2023/02/16 07:07:27;;;;;;;12.15;4.18;;;;;;;;;;5029319;28;20045;-63
2023/02/16 07:09:57;;;;;;;11.52;3.85;;;;;;;;;;5029363;28;20080;-63
2023/02/16 07:12:27;;;;;;;7.80;4.18;;;;;;;;;;5028966;28;20045;-63
2023/02/16 07:14:57;;;;;;;6.22;3.72;;;;;;;;;;5012503;28;20497;-63
2023/02/16 07:17:27;;;;;;;8.18;3.50;;;;;;;;;;5029289;28;20411;-64
2023/02/16 07:19:57;;;;;;;8.32;3.80;;;;;;;;;;5029404;28;20061;-64
2023/02/16 07:22:28;;;;;;;7.03;2.72;;;;;;;;;;4989496;28;20526;-64
2023/02/16 07:24:59;;;;;;;7.53;3.47;;;;;;;;;;4989514;28;20546;-63
2023/02/16 07:27:29;;;;;;;7.00;3.10;;;;;;;;;;4989484;28;20046;-64
2023/02/16 07:29:59;;;;;;;8.57;3.38;;;;;;;;;;4976735;28;20050;-64
2023/02/16 07:32:29;;;;;;;9.68;3.60;;;;;;;;;;5048866;28;20547;-63
2023/02/16 07:34:59;;;;;;;6.85;3.10;;;;;;;;;;5048882;28;20053;-63
2023/02/16 07:37:29;;;;;;;12.35;3.70;;;;;;;;;;5031913;28;20149;-63
2023/02/16 07:39:59;;;;;;;10.43;3.75;;;;;;;;;;5048524;28;20052;-63
2023/02/16 07:42:31;;;;;;;7.72;3.58;;;;;;;;;;5048510;28;20055;-63
2023/02/16 07:45:03;;;;;;;11.70;3.40;;;;;;;;;;4993013;28;20057;-64
2023/02/16 07:47:33;;;;;;;10.35;3.80;;;;;;;;;;5008847;28;20064;-63
2023/02/16 07:50:03;;;;;;;7.97;3.80;;;;;;;;;;5008919;28;20061;-64
2023/02/16 07:52:34;;;;;;;11.35;3.67;;;;;;;;;;4976807;28;20050;-63
2023/02/16 07:55:04;;;;;;;10.15;3.92;;;;;;;;;;4992774;28;20061;-63
2023/02/16 07:57:34;;;;;;;8.57;3.65;;;;;;;;;;4972698;28;20054;-63
2023/02/16 08:00:06;;;;;;;8.75;3.90;;;;;;;;;;5007975;28;20046;-64
2023/02/16 08:02:40;;;;;;;8.88;3.45;;;;;;;;;;5028573;28;20068;-64
2023/02/16 08:05:10;;;;;;;7.55;3.25;;;;;;;;;;5028230;28;20505;-68
2023/02/16 08:07:40;;;;;;;9.20;3.60;;;;;;;;;;5027063;28;20053;-64
2023/02/16 08:10:15;;;;;;;7.50;3.53;;;;;;;;;;4980593;28;20061;-64
2023/02/16 08:12:44;;;;;;;8.50;3.30;;;;;;;;;;5011886;28;20046;-64
2023/02/16 08:15:14;;;;;;;7.18;3.30;;;;;;;;;;5011422;28;20064;-63
2023/02/16 08:17:45;;;;;;;9.90;3.58;;;;;;;;;;5028075;28;20083;-64
2023/02/16 08:20:14;;;;;;;15.35;4.03;;;;;;;;;;5028023;28;20064;-66
2023/02/16 08:22:44;;;;;;;10.63;3.22;;;;;;;;;;5011637;28;20098;-64
2023/02/16 08:25:14;;;;;;;6.10;3.38;;;;;;;;;;5032128;28;20050;-64
2023/02/16 08:27:44;;;;;;;8.30;3.53;;;;;;;;;;5031339;28;20060;-64
2023/02/16 08:30:17;;;;;;;6.25;3.35;;;;;;;;;;5031897;28;20054;-64
2023/02/16 08:32:49;;;;;;;10.88;3.97;;;;;;;;;;5032396;28;20046;-64
2023/02/16 08:35:20;;;;;;;12.30;3.38;;;;;;;;;;5054412;28;20048;-64
2023/02/16 08:37:50;;;;;;;6.68;3.88;;;;;;;;;;5039146;28;20400;-64
2023/02/16 08:40:23;;;;;;;6.93;3.72;;;;;;;;;;5071882;28;20508;-66
2023/02/16 08:42:53;;;;;;;10.80;3.70;;;;;;;;;;5071912;28;20053;-63
2023/02/16 08:45:23;;;;;;;15.50;3.95;;;;;;;;;;5071996;28;20052;-64
2023/02/16 08:47:53;;;;;;;7.38;4.38;;;;;;;;;;5072120;28;20049;-63
2023/02/16 08:50:24;;;;;;;8.85;3.45;;;;;;;;;;5039277;28;20079;-63
2023/02/16 08:52:53;;;;;;;9.02;3.75;;;;;;;;;;5022050;28;20061;-63
2023/02/16 08:55:24;;;;;;;7.13;3.88;;;;;;;;;;5083309;28;20056;-66
2023/02/16 08:57:54;;;;;;;7.95;3.38;;;;;;;;;;5058556;28;20063;-64
2023/02/16 09:00:33;;;;;;;9.30;3.72;;;;;;;;;;5058184;28;20063;-64
2023/02/16 09:03:05;;;;;;;10.40;4.53;;;;;;;;;;5094405;28;20500;-65
2023/02/16 09:05:35;;;;;;;12.98;4.60;;;;;;;;;;5094436;28;20051;-64
2023/02/16 09:08:05;;;;;;;8.98;4.30;;;;;;;;;;5058230;28;20067;-64
2023/02/16 09:10:36;;;;;;;11.30;4.65;;;;;;;;;;5094056;28;20040;-64
2023/02/16 09:13:09;;;;;;;12.85;4.50;;;;;;;;;;5076944;28;20051;-64
2023/02/16 09:15:41;;;;;;;12.60;4.75;;;;;;;;;;5051402;28;20052;-64
2023/02/16 09:18:12;;;;;;;9.20;3.38;;;;;;;;;;5051345;28;20056;-64
2023/02/16 09:20:43;;;;;;;8.27;3.40;;;;;;;;;;5017713;28;20083;-65
2023/02/16 09:23:14;;;;;;;7.70;3.80;;;;;;;;;;5034606;28;20124;-64
2023/02/16 09:25:44;;;;;;;12.05;3.67;;;;;;;;;;5034209;28;20132;-64
2023/02/16 09:28:14;;;;;;;6.65;3.15;;;;;;;;;;5018783;28;20409;-64
2023/02/16 09:30:44;;;;;;;8.07;3.45;;;;;;;;;;5033962;28;20045;-64
2023/02/16 09:33:15;;;;;;;7.65;3.75;;;;;;;;;;5051319;28;20074;-63
2023/02/16 09:35:45;;;;;;;8.25;3.28;;;;;;;;;;5001356;28;20052;-63
2023/02/16 09:38:16;;;;;;;8.55;3.55;;;;;;;;;;5050730;28;20527;-63
2023/02/16 09:40:47;;;;;;;9.05;3.55;;;;;;;;;;5050783;28;20057;-63
2023/02/16 09:43:34;;;;;;;10.00;3.80;;;;;;;;;;5051169;28;20075;-64
2023/02/16 09:46:10;;;;;;;9.65;3.85;;;;;;;;;;5061076;28;20052;-63
2023/02/16 09:48:44;;;;;;;8.35;4.10;;;;;;;;;;5093508;28;20052;-63
2023/02/16 09:51:34;;;;;;;10.68;4.18;;;;;;;;;;5093421;28;20483;-63
2023/02/16 09:54:41;;;;;;;8.07;4.15;;;;;;;;;;5093699;28;20040;-66
2023/02/16 09:57:42;;;;;;;8.95;4.43;;;;;;;;;;5058490;28;20411;-65
2023/02/16 10:00:40;;;;;;;9.20;4.07;;;;;;;;;;5040897;28;20052;-64
2023/02/16 10:03:13;;;;;;;8.93;4.38;;;;;;;;;;5093620;28;20039;-64
2023/02/16 10:05:54;;;;;;;8.40;4.55;;;;;;;;;;5057659;28;20066;-64
2023/02/16 10:08:28;;;;;;;9.25;5.10;;;;;;;;;;5057291;28;20059;-64
2023/02/16 10:11:01;;;;;;;11.10;5.47;;;;;;;;;;5093386;28;20051;-64
2023/02/16 10:13:48;;;;;;;9.07;4.43;;;;;;;;;;5093036;28;20051;-65
2023/02/16 10:16:27;;;;;;;10.02;5.03;;;;;;;;;;5057180;28;20511;-63
2023/02/16 10:18:58;;;;;;;;;;;;;;;;;;5093291;28;20044;-63
2023/02/16 10:21:30;;;;;;;15.38;4.95;;;;;;;;;;5073471;28;19919;-64
2023/02/16 10:24:05;;;;;;;18.85;5.20;;;;;;;;;;5093290;28;20365;-64
2023/02/16 10:26:45;;;;;;;9.48;4.72;;;;;;;;;;5057827;28;20086;-63
2023/02/16 10:29:21;;;;;;;10.73;5.15;;;;;;;;;;5092596;28;20048;-64
2023/02/16 10:32:12;;;;;;;12.48;4.75;;;;;;;;;;5049821;28;20063;-64
2023/02/16 10:34:49;;;;;;;11.80;5.03;;;;;;;;;;5032760;28;20513;-64
2023/02/16 10:37:41;;;;;;;9.45;4.43;;;;;;;;;;5049399;28;20076;-63
2023/02/16 10:41:00;;;;;;;10.07;4.82;;;;;;;;;;5049270;28;20508;-63
2023/02/16 10:44:07;;;;;;;10.52;4.55;;;;;;;;;;5049854;28;20433;-63
2023/02/16 10:46:42;;;;;;;7.03;4.07;;;;;;;;;;4918942;29;20067;-63
2023/02/16 10:49:15;;;;;;;11.70;4.28;;;;;;;;;;4951573;29;20063;-63
2023/02/16 10:51:49;;;;;;;7.65;4.30;;;;;;;;;;4935445;29;20526;-63
2023/02/16 10:54:25;;;;;;;8.10;4.15;;;;;;;;;;4951654;29;20062;-64
2023/02/16 10:57:02;;;;;;;7.28;4.30;;;;;;;;;;4951306;29;20066;-65
2023/02/16 10:59:44;;;;;;;10.27;5.03;;;;;;;;;;4919540;29;20051;-65
2023/02/16 11:02:18;;;;;;;10.30;4.47;;;;;;;;;;4951332;29;20471;-64
2023/02/16 11:04:51;;;;;;;7.75;4.40;;;;;;;;;;4951162;29;20055;-63
2023/02/16 11:07:23;;;;;;;8.70;4.45;;;;;;;;;;4966980;28;20531;-64
2023/02/16 11:09:56;;;;;;;7.07;4.00;;;;;;;;;;4977018;28;20137;-64
2023/02/16 11:12:41;;;;;;;;;;;;;;;;;;4974266;28;20054;-64
2023/02/16 11:15:15;;;;;;;8.77;3.72;;;;;;;;;;4986587;28;19925;-64
2023/02/16 11:17:56;;;;;;;8.23;3.78;;;;;;;;;;4970901;28;20062;-64
2023/02/16 11:20:32;;;;;;;8.32;3.55;;;;;;;;;;4956696;28;20117;-63
2023/02/16 11:23:24;;;;;;;9.80;3.72;;;;;;;;;;5021832;28;20052;-65
2023/02/16 11:26:07;;;;;;;10.60;3.90;;;;;;;;;;5092228;28;20056;-65
2023/02/16 11:28:43;;;;;;;7.60;3.90;;;;;;;;;;5091659;28;20051;-65
2023/02/16 11:31:43;;;;;;;6.60;3.70;;;;;;;;;;5055555;28;20423;-65
2023/02/16 11:34:20;;;;;;;7.03;3.40;;;;;;;;;;5048224;28;20057;-66
2023/02/16 11:36:51;;;;;;;8.05;4.72;;;;;;;;;;5046487;28;20048;-64
2023/02/16 11:39:29;;;;;;;12.95;3.75;;;;;;;;;;4998288;28;20055;-65
2023/02/16 11:42:03;;;;;;;7.65;3.45;;;;;;;;;;5031864;28;20091;-65
2023/02/16 11:44:34;;;;;;;9.80;3.92;;;;;;;;;;5047807;28;20057;-65
2023/02/16 11:47:20;;;;;;;7.68;3.97;;;;;;;;;;5047462;28;20053;-62
2023/02/16 11:50:17;;;;;;;8.90;4.28;;;;;;;;;;5021106;28;20552;-63
2023/02/16 11:53:01;;;;;;;6.75;3.45;;;;;;;;;;5030851;28;20053;-63
2023/02/16 11:55:42;;;;;;;10.68;3.58;;;;;;;;;;5017437;28;20512;-65
2023/02/16 11:58:25;;;;;;;7.15;3.40;;;;;;;;;;5068181;28;20052;-64
2023/02/16 12:01:07;;;;;;;7.30;2.88;;;;;;;;;;5051693;28;20052;-64
2023/02/16 12:04:01;;;;;;;5.50;2.88;;;;;;;;;;5068252;28;20057;-63
2023/02/16 12:06:52;;;;;;;6.97;3.25;;;;;;;;;;5068359;28;20041;-64
2023/02/16 12:09:37;;;;;;;6.70;3.30;;;;;;;;;;5067681;28;20060;-63
2023/02/16 12:12:18;;;;;;;5.10;3.03;;;;;;;;;;5091011;28;20369;-64
2023/02/16 12:15:03;;;;;;;8.13;3.25;;;;;;;;;;5090938;28;20408;-63
2023/02/16 12:17:53;;;;;;;6.00;3.08;;;;;;;;;;5068304;28;20075;-64
2023/02/16 12:20:34;;;;;;;5.97;3.42;;;;;;;;;;5068155;28;20048;-63
2023/02/16 12:23:33;;;;;;;5.18;2.60;;;;;;;;;;5067720;28;20048;-63
2023/02/16 12:26:32;;;;;;;5.80;2.65;;;;;;;;;;5034621;28;20226;-63
2023/02/16 12:29:34;;;;;;;6.22;3.20;;;;;;;;;;5050864;28;20055;-63
2023/02/16 12:32:25;;;;;;;5.57;2.95;;;;;;;;;;5040686;28;20519;-64
2023/02/16 12:35:11;;;;;;;4.35;2.75;;;;;;;;;;5034898;28;20064;-63
2023/02/16 12:38:06;;;;;;;5.32;3.08;;;;;;;;;;5067394;28;20052;-64
2023/02/16 12:41:07;;;;;;;6.72;3.22;;;;;;;;;;5034350;28;20598;-64
2023/02/16 12:43:46;;;;;;;5.60;2.60;;;;;;;;;;5035032;28;20063;-63
2023/02/16 12:46:31;;;;;;;;;;;;;;;;;;5019473;28;20405;-63
2023/02/16 12:49:05;;;;;;;5.38;2.53;;;;;;;;;;5051856;28;19927;-63
2023/02/16 12:51:53;;;;;;;7.78;2.78;;;;;;;;;;5068020;28;20040;-63
2023/02/16 12:54:31;;;;;;;7.78;2.70;;;;;;;;;;5071808;28;20531;-64
2023/02/16 12:57:09;;;;;;;9.88;3.38;;;;;;;;;;5090698;28;20040;-65
2023/02/16 13:00:40;;;;;;;4.72;2.92;;;;;;;;;;5090301;28;20040;-64
2023/02/16 13:03:16;;;;;;;9.57;3.47;;;;;;;;;;5007485;28;20054;-64
2023/02/16 13:06:07;;;;;;;4.78;2.30;;;;;;;;;;5008160;28;20195;-64
2023/02/16 13:09:05;;;;;;;6.07;2.50;;;;;;;;;;5008252;28;20053;-65
2023/02/16 13:11:47;;;;;;;4.75;2.80;;;;;;;;;;4951083;29;20051;-64
2023/02/16 13:14:21;;;;;;;5.68;2.85;;;;;;;;;;4953005;29;20066;-64
2023/02/16 13:17:22;;;;;;;6.13;3.95;;;;;;;;;;4935824;28;20078;-66
2023/02/16 13:19:53;;;;;;;6.90;3.20;;;;;;;;;;4917937;29;20056;-64
2023/02/16 13:22:43;;;;;;;6.95;3.20;;;;;;;;;;4918219;29;20075;-63
2023/02/16 13:25:33;;;;;;;6.65;3.20;;;;;;;;;;4902230;29;20055;-63
2023/02/16 13:28:21;;;;;;;;;;;;;;;;;;4933197;29;20622;-64
2023/02/16 13:31:04;;;;;;;5.45;2.85;;;;;;;;;;4901638;29;19942;-64
2023/02/16 13:34:11;;;;;;;4.43;2.88;;;;;;;;;;4933626;29;20063;-64
2023/02/16 13:37:08;;;;;;;5.53;2.67;;;;;;;;;;4917585;29;20052;-64
2023/02/16 13:39:46;;;;;;;4.25;2.60;;;;;;;;;;4941591;28;20462;-65
2023/02/16 13:42:18;;;;;;;;;;;;;;;;;;4972674;28;20054;-64
2023/02/16 13:45:00;;;;;;;3.08;2.05;;;;;;;;;;4972083;28;19922;-64
2023/02/16 13:47:37;;;;;;;5.75;2.45;;;;;;;;;;4972673;28;20108;-64
2023/02/16 13:50:23;;;;;;;5.47;2.17;;;;;;;;;;4967154;28;20530;-65
2023/02/16 13:52:57;;;;;;;5.60;2.10;;;;;;;;;;5030830;28;20062;-64
2023/02/16 13:55:36;;;;;;;5.28;2.00;;;;;;;;;;4997447;28;20049;-64
2023/02/16 13:58:11;;;;;;;2.40;1.63;;;;;;;;;;5001912;28;20053;-64
2023/02/16 14:00:46;;;;;;;2.53;1.65;;;;;;;;;;4961941;28;20065;-64
2023/02/16 14:03:19;;;;;;;4.78;1.80;;;;;;;;;;5010506;28;20068;-65
2023/02/16 14:05:52;;;;;;;3.65;1.33;;;;;;;;;;4987868;28;20061;-64
2023/02/16 14:08:26;;;;;;;;;;;;;;;;;;4989181;28;20514;-66
2023/02/16 14:11:03;;;;;;;3.38;1.30;;;;;;;;;;4994416;28;19935;-64
2023/02/16 14:13:38;;;;;;;2.85;1.30;;;;;;;;;;5061227;28;20045;-64
2023/02/16 14:16:16;;;;;;;1.77;1.08;;;;;;;;;;5057251;28;20456;-64
2023/02/16 14:19:15;;;;;;;0.95;0.80;;;;;;;;;;5016967;28;20064;-65
2023/02/16 14:21:48;;;;;;;1.77;1.02;;;;;;;;;;4992345;28;20062;-64
2023/02/16 14:24:30;;;;;;;1.33;0.80;;;;;;;;;;4974451;28;20054;-65
2023/02/16 14:27:05;;;;;;;2.10;0.93;;;;;;;;;;4942711;28;20054;-64
2023/02/16 14:30:11;;;;;;;9.27;1.20;;;;;;;;;;4995235;28;20042;-63
2023/02/16 14:32:47;;;;;;;9.75;1.90;;;;;;;;;;4936299;29;20531;-63
2023/02/16 14:35:37;;;;;;;5.38;1.33;;;;;;;;;;4926377;28;20063;-64
2023/02/16 14:38:34;;;;;;;6.57;1.70;;;;;;;;;;4951384;28;20385;-66
2023/02/16 14:41:06;;;;;;;;;;;;;;;;;;4952338;29;20055;-64
2023/02/16 14:43:47;;;;;;;2.50;0.90;;;;;;;;;;4919093;29;20402;-63
2023/02/16 14:46:41;;;;;;;1.85;0.90;;;;;;;;;;4964007;28;20729;-63
2023/02/16 14:49:38;;;;;;;2.03;0.80;;;;;;;;;;4950415;29;20419;-64
2023/02/16 14:52:35;;;;;;;1.35;0.75;;;;;;;;;;4931736;29;20051;-65
2023/02/16 14:55:10;;;;;;;1.67;0.85;;;;;;;;;;4881755;29;20169;-64
2023/02/16 14:57:42;;;;;;;3.17;0.80;;;;;;;;;;4916913;29;20095;-66
2023/02/16 15:00:29;;;;;;;1.55;0.80;;;;;;;;;;4932012;29;20056;-65
2023/02/16 15:03:00;;;;;;;1.75;0.90;;;;;;;;;;4905236;29;20059;-64
2023/02/16 15:05:34;;;;;;;1.98;1.23;;;;;;;;;;4913030;29;20413;-64
2023/02/16 15:08:24;;;;;;;1.63;0.90;;;;;;;;;;4931172;29;20060;-64
2023/02/16 15:10:54;;;;;;;2.78;0.90;;;;;;;;;;4951173;29;20055;-63
2023/02/16 15:13:30;;;;;;;1.48;0.95;;;;;;;;;;4951308;29;20085;-64
2023/02/16 15:16:02;;;;;;;3.67;1.08;;;;;;;;;;4966053;28;20076;-65
2023/02/16 15:18:39;;;;;;;1.40;0.90;;;;;;;;;;5008980;28;20057;-64
2023/02/16 15:21:27;;;;;;;1.63;0.90;;;;;;;;;;4989905;28;20065;-64
2023/02/16 15:23:59;;;;;;;1.25;0.90;;;;;;;;;;5028685;28;20056;-65
2023/02/16 15:26:32;;;;;;;1.88;0.90;;;;;;;;;;5027321;28;20065;-64
2023/02/16 15:29:25;;;;;;;1.55;0.80;;;;;;;;;;5109284;28;20054;-65
2023/02/16 15:31:57;;;;;;;3.65;1.20;;;;;;;;;;5111517;28;20261;-64
2023/02/16 15:34:34;;;;;;;;;;;;;;;;;;5112385;28;20047;-65
2023/02/16 15:37:32;;;;;;;2.40;1.10;;;;;;;;;;5111056;28;19920;-64
2023/02/16 15:40:26;;;;;;;2.33;1.08;;;;;;;;;;5057559;28;20044;-66
2023/02/16 15:43:29;;;;;;;1.40;1.20;;;;;;;;;;5110435;28;20043;-64
2023/02/16 15:46:02;;;;;;;2.13;1.25;;;;;;;;;;5109312;28;20048;-65
2023/02/16 15:48:37;;;;;;;2.35;1.20;;;;;;;;;;5108657;28;20048;-63
2023/02/16 15:51:09;;;;;;;1.77;1.13;;;;;;;;;;5111342;28;20035;-64
2023/02/16 15:53:56;;;;;;;1.60;1.00;;;;;;;;;;5058765;28;20047;-64
2023/02/16 15:56:44;;;;;;;1.10;0.52;;;;;;;;;;5031366;28;20041;-63
2023/02/16 15:59:16;;;;;;;2.35;1.20;;;;;;;;;;5015528;28;20064;-64
2023/02/16 16:01:47;;;;;;;2.03;1.33;;;;;;;;;;5015245;28;20045;-63
2023/02/16 16:04:23;;;;;;;1.63;0.77;;;;;;;;;;5048522;28;20493;-64
2023/02/16 16:06:54;;;;;;;2.45;1.50;;;;;;;;;;5048306;28;20052;-64
2023/02/16 16:09:29;;;;;;;2.28;1.42;;;;;;;;;;4999537;28;20052;-64
2023/02/16 16:12:04;;;;;;;2.45;1.30;;;;;;;;;;5000021;28;20060;-64
2023/02/16 16:14:39;;;;;;;1.95;0.90;;;;;;;;;;5047886;28;20064;-64
2023/02/16 16:17:14;;;;;;;1.63;0.90;;;;;;;;;;5014944;28;20041;-63
2023/02/16 16:19:46;;;;;;;2.28;1.30;;;;;;;;;;5047224;28;20054;-65
2023/02/16 16:22:38;;;;;;;1.85;0.93;;;;;;;;;;5031369;28;20068;-62
2023/02/16 16:25:37;;;;;;;1.85;0.80;;;;;;;;;;5048171;28;20049;-62